Latest Coastal Weather Observations for Orbost

IDV60701

Issued at 11:11 am EDT Thursday 23 February 2017 (issued every 10 minutes, with the page automatically refreshed every 10 minutes)

About coastal observations | Map of coastal stations | Coastal observations for VIC | Marine services | Other Formats
Station Details ID: 084145 Name: ORBOST Lat: -37.69 Lon: 148.47 Height: 62.65 m
Data from the previous 72 hours. | See also: Recent months at Orbost
Date/Time
EDT
Temp
°C
Wind Pressure Rain since
9am
mm
Weather Cloud Vis
km
Sea
Height
m
Swell
Dir  Spd
kts
Gust
kts
hPa Trend Height
m
Period
s
Dir
23/11:00am 23.0 S 6 8 1016.7 - 0.0 - - - - - - -
23/10:30am 23.1 SSE 4 6 1016.7 - 0.0 - - - - - - -
23/10:00am 22.3 SSE 4 7 1016.4 - 0.0 - - - - - - -
23/09:30am 22.1 SE 3 6 1016.2 - 0.0 - - - - - - -
23/09:00am 21.8 SSE 2 3 1015.9 - 0.0 - - - - - - -
23/08:30am 20.9 NW 2 3 1015.8 - 0.0 - - - - - - -
23/08:00am 19.6 N 3 4 1015.5 - 0.0 - - - - - - -
23/07:30am 18.1 NNW 4 6 1015.2 - 0.0 - - - - - - -
23/07:00am 17.9 NW 5 6 1014.7 - 0.0 - - - - - - -
23/06:30am 18.4 WNW 5 8 1014.4 - 0.0 - - - - - - -
23/06:00am 18.7 WNW 6 9 1013.5 - 0.0 - - - - - - -
23/05:30am 18.6 W 7 12 1012.6 - 0.0 - - - - - - -
23/05:00am 13.6 NNW 4 15 1011.7 - 0.0 - - - - - - -
23/04:30am 16.4 CALM 0 2 1010.3 - 0.0 - - - - - - -
23/04:00am 17.8 SE 3 5 1010.2 - 0.0 - - - - - - -
23/03:30am 21.3 ENE 5 7 1010.3 - 0.0 - - - - - - -
23/03:00am 22.6 ENE 6 8 1010.5 - 0.0 - - - - - - -
23/02:30am 21.5 ENE 4 5 1010.8 - 0.0 - - - - - - -
23/02:00am 21.8 NNE 4 6 1011.0 - 0.0 - - - - - - -
23/01:30am 19.8 CALM 0 0 1011.4 - 0.0 - - - - - - -
23/01:00am 18.9 CALM 0 2 1011.7 - 0.0 - - - - - - -
23/12:30am 18.3 WSW 2 3 1012.0 - 0.0 - - - - - - -
23/12:00am 20.1 NNW 1 2 1012.0 - 0.0 - - - - - - -
 
Date/Time
EDT
Temp
°C
Wind Pressure Rain since
9am
mm
Weather Cloud Vis
km
Sea
Height
m
Swell
Dir  Spd
kts
Gust
kts
hPa Trend Height
m
Period
s
Dir
22/11:30pm 22.3 NE 3 6 1012.1 - 0.0 - - - - - - -
22/11:00pm 19.8 WNW 1 2 1012.5 - 0.0 - - - - - - -
22/10:30pm 21.5 CALM 0 0 1012.6 - 0.0 - - - - - - -
22/10:00pm 21.5 N 2 4 1012.7 - 0.0 - - - - - - -
22/09:30pm 21.0 CALM 0 0 1012.7 - 0.0 - - - - - - -
22/09:00pm 22.0 CALM 0 0 1012.5 - 0.0 - - - - - - -
22/08:30pm 22.4 NNE 2 2 1012.3 - 0.0 - - - - - - -
22/08:00pm 23.1 NNW 2 3 1012.2 - 0.0 - - - - - - -
22/07:30pm 25.8 W 2 2 1012.0 - 0.0 - - - - - - -
22/07:00pm 26.4 CALM 0 1 1011.6 - 0.0 - - - - - - -
22/06:30pm 26.3 SSE 3 5 1011.6 - 0.0 - - - - - - -
22/06:00pm 26.7 S 4 7 1012.0 - 0.0 - - - - - - -
22/05:30pm 27.1 SSE 5 9 1012.1 - 0.0 - - - - - - -
22/05:00pm 26.4 SSE 6 9 1012.1 - 0.0 - - - - - - -
22/04:30pm 25.8 SSE 6 11 1012.2 - 0.0 - - - - - - -
22/04:00pm 25.9 SE 7 10 1012.1 - 0.0 - - - - - - -
22/03:30pm 26.4 SSE 7 11 1012.4 - 0.0 - - - - - - -
22/03:00pm 25.1 SSE 7 11 1012.7 - 0.0 - - - - - - -
22/02:30pm 26.2 S 7 10 1013.2 - 0.0 - - - - - - -
22/02:00pm 26.1 SSE 7 10 1013.5 - 0.0 - - - - - - -
22/01:30pm 26.1 SE 5 8 1014.0 - 0.0 - - - - - - -
22/01:00pm 26.3 SSE 4 8 1014.5 - 0.0 - - - - - - -
22/12:30pm 24.9 SE 3 6 1015.1 - 0.0 - - - - - - -
22/12:00pm 24.4 SSE 2 5 1015.8 - 0.0 - - - - - - -
22/11:30am 22.7 SSW 3 5 1016.3 - 0.0 - - - - - - -
22/11:00am 22.2 S 1 3 1016.8 - 0.0 - - - - - - -
22/10:30am 20.8 WSW 2 4 1017.2 - 0.0 - - - - - - -
22/10:00am 19.1 WSW 1 3 1017.3 - 0.0 - - - - - - -
22/09:30am 17.4 SSW 1 2 1017.6 - 0.0 - - - - - - -
22/09:00am 15.8 CALM 0 0 1017.9 - 0.0 - - - - - - -
22/08:30am 13.7 CALM 0 0 1018.0 - 0.0 - - - - - - -
22/08:00am 12.5 CALM 0 0 1018.0 - 0.0 - - - - - - -
22/07:30am 10.1 CALM 0 0 1017.9 - 0.0 - - - - - - -
22/07:00am 10.1 CALM 0 0 1017.8 - 0.0 - - - - - - -
22/06:30am 10.2 CALM 0 0 1017.7 - 0.0 - - - - - - -
22/06:00am 10.3 CALM 0 0 1017.5 - 0.0 - - - - - - -
22/05:30am 10.3 CALM 0 0 1017.6 - 0.0 - - - - - - -
22/05:00am 10.2 CALM 0 0 1017.6 - 0.0 - - - - - - -
22/04:30am 10.4 CALM 0 0 1017.8 - 0.0 - - - - - - -
22/04:00am 10.5 CALM 0 0 1018.0 - 0.0 - - - - - - -
22/03:30am 10.8 CALM 0 0 1018.1 - 0.0 - - - - - - -
22/03:00am 11.2 CALM 0 0 1018.3 - 0.0 - - - - - - -
22/02:30am 11.5 CALM 0 0 1018.7 - 0.0 - - - - - - -
22/02:00am 11.7 CALM 0 0 1019.0 - 0.0 - - - - - - -
22/01:30am 12.0 CALM 0 0 1019.5 - 0.0 - - - - - - -
22/01:00am 11.9 CALM 0 0 1019.8 - 0.0 - - - - - - -
22/12:30am 12.0 CALM 0 0 1020.1 - 0.0 - - - - - - -
22/12:00am 12.7 CALM 0 0 1020.3 - 0.0 - - - - - - -
 
Date/Time
EDT
Temp
°C
Wind Pressure Rain since
9am
mm
Weather Cloud Vis
km
Sea
Height
m
Swell
Dir  Spd
kts
Gust
kts
hPa Trend Height
m
Period
s
Dir
21/11:30pm 14.1 ESE 1 2 1020.6 - 0.0 - - - - - - -
21/11:00pm 15.1 ESE 4 7 1020.9 - 0.0 - - - - - - -
21/10:30pm 14.9 E 4 6 1021.1 - 0.0 - - - - - - -
21/10:00pm 14.9 ESE 4 9 1021.3 - 0.0 - - - - - - -
21/09:30pm 14.7 ESE 3 4 1021.1 - 0.0 - - - - - - -
21/09:00pm 14.6 SE 1 3 1021.0 - 0.0 - - - - - - -
21/08:30pm 15.7 SE 2 4 1020.4 - 0.0 - - - - - - -
21/08:00pm 16.3 ESE 3 5 1019.9 - 0.0 - - - - - - -
21/07:30pm 17.5 SE 3 7 1019.8 - 0.0 - - - - - - -
21/07:00pm 18.3 SE 4 8 1019.7 - 0.0 - - - - - - -
21/06:30pm 18.6 SE 5 8 1019.4 - 0.0 - - - - - - -
21/06:00pm 19.1 SSE 5 11 1019.4 - 0.0 - - - - - - -
21/05:30pm 20.1 SSE 5 8 1019.4 - 0.0 - - - - - - -
21/05:00pm 19.9 SSE 5 10 1019.4 - 0.0 - - - - - - -
21/04:30pm 20.3 SSE 5 9 1019.4 - 0.0 - - - - - - -
21/04:00pm 20.5 SSE 6 10 1019.5 - 0.0 - - - - - - -
21/03:30pm 20.1 S 7 10 1019.8 - 0.0 - - - - - - -
21/03:00pm 20.7 S 6 11 1019.9 - 0.0 - - - - - - -
21/02:30pm 19.7 SSE 6 11 1020.2 - 0.0 - - - - - - -
21/02:00pm 20.4 S 7 11 1020.4 - 0.0 - - - - - - -
21/01:30pm 21.2 SW 5 8 1020.5 - 0.0 - - - - - - -
21/01:00pm 20.8 E 3 9 1020.4 - 0.0 - - - - - - -
21/12:30pm 20.1 SW 5 12 1020.9 - 0.0 - - - - - - -
21/12:00pm 19.7 WNW 4 8 1021.0 - 0.0 - - - - - - -
21/11:30am 19.3 W 5 9 1021.4 - 0.0 - - - - - - -
21/11:00am 18.3 WNW 5 9 1021.5 - 0.0 - - - - - - -
21/10:30am 17.9 W 5 7 1021.5 - 0.0 - - - - - - -
21/10:00am 17.1 W 4 8 1021.5 - 0.0 - - - - - - -
21/09:30am 16.3 WNW 3 6 1021.2 - 0.0 - - - - - - -
21/09:00am 14.9 NW 3 5 1021.0 - 0.2 - - - - - - -
21/08:30am 13.3 NNW 3 6 1020.8 - 0.2 - - - - - - -
21/08:00am 11.9 N 4 5 1020.3 - 0.2 - - - - - - -
21/07:30am 9.8 N 3 3 1020.1 - 0.2 - - - - - - -
21/07:00am 8.6 NNW 2 4 1019.7 - 0.2 - - - - - - -
21/06:30am 9.0 N 4 5 1019.2 - 0.2 - - - - - - -
21/06:00am 8.9 NNW 3 5 1018.9 - 0.2 - - - - - - -
21/05:30am 9.8 NW 2 3 1018.5 - 0.2 - - - - - - -
21/05:00am 9.6 W 1 2 1018.1 - 0.2 - - - - - - -
21/04:30am 11.7 NNW 3 5 1018.0 - 0.2 - - - - - - -
21/04:00am 11.8 NNW 5 6 1017.8 - 0.2 - - - - - - -
21/03:30am 12.7 NNW 4 5 1017.8 - 0.2 - - - - - - -
21/03:00am 12.8 NNW 5 8 1017.8 - 0.2 - - - - - - -
21/02:30am 13.0 NNW 5 7 1017.8 - 0.2 - - - - - - -
21/02:00am 13.5 NNW 5 10 1017.8 - 0.2 - - - - - - -
21/01:30am 13.6 NNW 6 9 1017.7 - 0.2 - - - - - - -
21/01:00am 13.7 NNW 7 12 1017.7 - 0.2 - - - - - - -
21/12:30am 13.5 NNW 6 8 1017.6 - 0.2 - - - - - - -
21/12:00am 12.7 N 7 12 1017.3 - 0.2 - - - - - - -
 
Date/Time
EDT
Temp
°C
Wind Pressure Rain since
9am
mm
Weather Cloud Vis
km
Sea
Height
m
Swell
Dir  Spd
kts
Gust
kts
hPa Trend Height
m
Period
s
Dir
20/11:30pm 13.1 NNW 4 6 1017.3 - 0.2 - - - - - - -
20/11:00pm 13.7 NW 4 6 1017.0 - 0.2 - - - - - - -
20/10:30pm 14.0 NW 4 8 1016.7 - 0.2 - - - - - - -
20/10:00pm 14.0 NW 5 7 1016.3 - 0.2 - - - - - - -
20/09:30pm 14.4 NW 4 7 1016.0 - 0.2 - - - - - - -
20/09:00pm 14.8 NW 4 7 1015.6 - 0.2 - - - - - - -
20/08:30pm 15.1 NW 6 8 1015.1 - 0.2 - - - - - - -
20/08:00pm 15.4 WNW 6 10 1014.6 - 0.2 - - - - - - -
20/07:30pm 16.0 WNW 7 10 1014.1 - 0.2 - - - - - - -
20/07:00pm 15.7 WNW 6 9 1013.6 - 0.2 - - - - - - -
20/06:30pm 15.6 WNW 8 12 1013.3 - 0.2 - - - - - - -
20/06:00pm 15.6 WNW 8 12 1013.0 - 0.2 - - - - - - -
20/05:30pm 17.0 WSW 15 21 1012.5 - 0.2 - - - - - - -
20/05:00pm 18.8 W 12 20 1011.6 - 0.2 - - - - - - -
20/04:30pm 17.1 WSW 12 19 1011.5 - 0.0 - - - - - - -
20/04:00pm 18.6 WSW 13 19 1011.0 - 0.0 - - - - - - -
20/03:30pm 16.1 WSW 12 18 1011.0 - 0.0 - - - - - - -
20/03:00pm 20.3 W 13 21 1010.3 - 0.0 - - - - - - -
20/02:30pm 18.9 WSW 14 22 1010.2 - 0.0 - - - - - - -
20/02:00pm 18.1 WSW 11 23 1010.5 - 0.0 - - - - - - -
20/01:42pm 18.3 W 15 25 1010.1 - 0.0 - - - - - - -
20/01:30pm 18.9 W 15 23 1010.0 - 0.0 - - - - - - -
20/01:00pm 18.1 W 12 21 1009.8 - 0.0 - - - - - - -
20/12:30pm 18.0 W 13 19 1009.8 - 0.0 - - - - - - -
20/12:00pm 18.5 WNW 13 21 1009.8 - 0.0 - - - - - - -
20/11:30am 16.6 W 14 21 1009.8 - 0.0 - - - - - - -

Other Formats:

Comma delimited format used in spreadsheet applications
http://www.bom.gov.au/fwo/IDV60701/IDV60701.95918.axf

JavaScript Object Notation format (JSON) in row-major order
http://www.bom.gov.au/fwo/IDV60701/IDV60701.95918.json